Aurora, WV

6:52 PM EDT on April 28, 2017 (GMT -0400)
1 1/2 Mi. South of Terra Alta, Snowy Creek WV | | Change Station

Elev 2842 ft 39.40 °N, 79.58 °W | Updated 41 seconds ago

Clear
Clear
73.1 °F
Feels Like 77 °F
N
1.0
Wind Variable Wind from North

Today
High -- | Low -- °F
--% Chance of Precip.
Yesterday
High -- | Low -- °F
Precip. -- in
Pressure 30.07 in
Visibility 10.0 miles
Clouds Scattered Clouds 9500 ft
Scattered Clouds 12000 ft
Heat Index 77 °F
Dew Point 43 °F
Humidity 34%
Rainfall 0.04 in
Snow Depth Not available.
6:22 AM 8:08 PM
Waxing Crescent, 9% visible
METAR K2G4 282240Z AUTO 36004KT 10SM SCT095 SCT120 20/05 A3007 RMK AO1
Pressure 30.07 in
Visibility 10.0 miles
Clouds Scattered Clouds 9500 ft
Scattered Clouds 12000 ft
Heat Index 77 °F
Dew Point 43 °F
Humidity 34%
Rainfall 0.04 in
Snow Depth Not available.
6:22 AM 8:08 PM
Waxing Crescent, 9% visible
METAR K2G4 282240Z AUTO 36004KT 10SM SCT095 SCT120 20/05 A3007 RMK AO1

Get Severe Weather Alerts

Thanks for signing up!

Be on the lookout for a verification email in your inbox.

You'll start receiving the daily forecast at 8 AM.

×

10-Day Weather Forecast

Almanac

Astronomy

Apr. 28, 2017 Rise Set
Actual Time
Civil Twilight
Nautical Twilight
Astronomical Twilight
Moon
Length of Visible Light
Length of Day
Tomorrow will be .
, % of the Moon is Illuminated

Today's Extremes

State Highs State Lows

Community

WunderPhotos

WunderBlog® & News

Nearby

Air Quality

  Air Quality AQ Index Pollutant
Not available.

Snow Depth

Station Depth Elevation

Earthquake Activity

City Distance Mag. Time & Date
Minimum magnitude displayed is 2.5.

Coastal Water Temperatures

Place Temperature

Stations

Nearby Weather Stations

Station Location Temp. Windchill Dew Point Humidity Wind Precip. Elev Updated Type
                   

Watches & Warnings

There are currently no watches in effect.